Time;durP1;ratioP1;P1;durP2;ratioP2;P2;SDS_P1;SDS_P2;PMS_P1;PMS_P2;Temp;Humidity;BMP_temperature;BMP_pressure;BME280_temperature;BME280_humidity;BME280_pressure;Samples;Min_cycle;Max_cycle;Signal;HPM_P1;HPM_P2
2023/01/21 00:02:11;;;;;;;8.97;5.87;;;-0.40;99.90;;;;;;4995801;28;20454;-65
2023/01/21 00:04:37;;;;;;;13.17;6.83;;;-0.40;99.90;;;;;;4995584;28;20189;-66
2023/01/21 00:07:04;;;;;;;18.17;8.67;;;-0.40;99.90;;;;;;5009965;28;20195;-66
2023/01/21 00:09:31;;;;;;;11.00;6.57;;;-0.40;99.90;;;;;;5015062;28;20773;-65
2023/01/21 00:11:57;;;;;;;18.63;7.63;;;-0.30;99.90;;;;;;4995566;28;20783;-65
2023/01/21 00:14:23;;;;;;;10.73;5.97;;;-0.20;99.90;;;;;;5015301;28;20423;-65
2023/01/21 00:16:49;;;;;;;11.40;6.03;;;-0.20;99.90;;;;;;5015072;28;20952;-65
2023/01/21 00:19:15;;;;;;;11.80;5.97;;;-0.20;99.90;;;;;;5014993;28;20415;-65
2023/01/21 00:21:40;;;;;;;11.77;6.50;;;-0.20;99.90;;;;;;5014759;28;20711;-65
2023/01/21 00:24:06;;;;;;;19.57;6.43;;;-0.30;99.90;;;;;;5012201;28;20283;-66
2023/01/21 00:26:32;;;;;;;8.83;5.43;;;-0.30;99.90;;;;;;4999708;28;20169;-66
2023/01/21 00:28:57;;;;;;;14.83;6.27;;;-0.30;99.90;;;;;;5018766;28;20458;-66
2023/01/21 00:31:23;;;;;;;8.43;5.73;;;-0.30;99.90;;;;;;5006177;28;20168;-66
2023/01/21 00:33:49;;;;;;;8.73;5.07;;;-0.30;99.90;;;;;;5014142;28;20200;-65
2023/01/21 00:36:17;;;;;;;9.63;5.87;;;-0.40;99.90;;;;;;5014130;28;20184;-66
2023/01/21 00:38:46;;;;;;;11.50;7.20;;;-0.40;99.90;;;;;;4997345;28;20196;-65
2023/01/21 00:41:13;;;;;;;10.27;6.00;;;-0.50;99.90;;;;;;5014509;28;20940;-67
2023/01/21 00:43:40;;;;;;;6.73;4.47;;;-0.40;99.90;;;;;;4998865;28;20432;-65
2023/01/21 00:46:06;;;;;;;11.03;5.50;;;-0.40;99.90;;;;;;4994709;28;20938;-65
2023/01/21 00:48:32;;;;;;;12.50;7.23;;;-0.40;99.90;;;;;;4994947;28;20443;-65
2023/01/21 00:50:59;;;;;;;9.80;6.13;;;-0.40;99.90;;;;;;4994869;28;20743;-66
2023/01/21 00:53:30;;;;;;;10.67;5.27;;;-0.40;99.90;;;;;;4995035;28;20443;-66
2023/01/21 00:56:03;;;;;;;8.90;6.20;;;-0.40;99.90;;;;;;4995450;28;20528;-66
2023/01/21 00:58:29;;;;;;;8.93;5.40;;;-0.40;99.90;;;;;;5013336;28;20426;-66
2023/01/21 01:01:07;;;;;;;8.77;5.47;;;-0.40;99.90;;;;;;5014686;28;20767;-66
2023/01/21 01:03:34;;;;;;;13.17;6.17;;;-0.40;99.90;;;;;;5013937;28;20427;-66
2023/01/21 01:06:12;;;;;;;8.00;4.87;;;-0.50;99.90;;;;;;5014031;28;20494;-66
2023/01/21 01:08:38;;;;;;;6.37;5.07;;;-0.50;99.90;;;;;;5013848;28;20957;-66
2023/01/21 01:11:04;;;;;;;9.37;6.50;;;-0.50;99.90;;;;;;5013822;28;20407;-66
2023/01/21 01:13:31;;;;;;;8.63;5.13;;;-0.40;99.90;;;;;;5014544;28;20423;-66
2023/01/21 01:15:57;;;;;;;9.53;5.67;;;-0.40;99.90;;;;;;5014639;28;20403;-65
2023/01/21 01:18:24;;;;;;;10.17;6.20;;;-0.40;99.90;;;;;;5013604;28;20410;-65
2023/01/21 01:20:50;;;;;;;12.87;5.00;;;-0.40;99.90;;;;;;5013331;28;20547;-66
2023/01/21 01:23:15;;;;;;;5.80;5.07;;;-0.30;99.90;;;;;;5013661;28;20541;-65
2023/01/21 01:25:41;;;;;;;5.37;3.77;;;-0.40;99.90;;;;;;5013606;28;20179;-66
2023/01/21 01:28:07;;;;;;;9.57;5.00;;;-0.40;99.90;;;;;;5013413;28;20185;-66
2023/01/21 01:30:34;;;;;;;10.73;4.67;;;-0.40;99.90;;;;;;5013329;28;20745;-66
2023/01/21 01:33:00;;;;;;;7.13;4.93;;;-0.40;99.90;;;;;;5013509;28;20442;-65
2023/01/21 01:35:26;;;;;;;8.13;4.83;;;-0.40;99.90;;;;;;5013308;28;20411;-66
2023/01/21 01:37:52;;;;;;;6.80;5.30;;;-0.40;99.90;;;;;;5013430;28;20407;-66
2023/01/21 01:40:19;;;;;;;13.23;5.50;;;-0.40;99.90;;;;;;5013220;28;20526;-66
2023/01/21 01:42:45;;;;;;;7.10;5.17;;;-0.40;99.90;;;;;;5013181;28;20518;-66
2023/01/21 01:45:13;;;;;;;12.83;4.80;;;-0.30;99.90;;;;;;5012926;28;20419;-66
2023/01/21 01:47:58;;;;;;;9.97;4.87;;;-0.30;99.90;;;;;;5013111;28;20230;-66
2023/01/21 01:50:28;;;;;;;9.57;6.10;;;-0.20;99.90;;;;;;4995592;28;20419;-66
2023/01/21 01:52:55;;;;;;;10.60;6.67;;;-0.20;99.90;;;;;;5013147;28;20448;-65
2023/01/21 01:55:22;;;;;;;9.53;6.83;;;-0.20;99.90;;;;;;5013268;28;20407;-66
2023/01/21 01:57:51;;;;;;;7.43;4.47;;;-0.20;99.90;;;;;;5012586;28;20442;-66
2023/01/21 02:00:17;;;;;;;10.60;6.70;;;-0.20;99.90;;;;;;5013506;28;20918;-66
2023/01/21 02:03:43;;;;;;;13.50;7.37;;;-0.10;99.90;;;;;;5013087;28;20857;-66
2023/01/21 02:05:31;;;;;;;9.87;6.93;;;-0.10;99.90;;;;;;5012694;28;20987;-65
2023/01/21 02:07:58;;;;;;;10.87;6.50;;;-0.20;99.90;;;;;;5013241;28;20815;-67
2023/01/21 02:10:23;;;;;;;15.83;7.93;;;-0.10;99.90;;;;;;5012981;28;20566;-65
2023/01/21 02:12:49;;;;;;;12.40;6.90;;;-0.10;99.90;;;;;;5012960;28;20878;-68
2023/01/21 02:15:15;;;;;;;14.10;8.87;;;-0.10;99.90;;;;;;5011118;28;20203;-65
2023/01/21 02:18:08;;;;;;;12.97;6.20;;;-0.10;99.90;;;;;;5012695;28;20173;-65
2023/01/21 02:20:45;;;;;;;12.10;6.63;;;-0.10;99.90;;;;;;5012476;28;20317;-65
2023/01/21 02:23:47;;;;;;;16.50;7.93;;;0.00;99.90;;;;;;5012520;28;20427;-65
2023/01/21 02:26:43;;;;;;;15.87;7.40;;;-0.10;99.90;;;;;;5012404;28;20403;-65
2023/01/21 02:29:14;;;;;;;14.10;6.57;;;0.00;99.90;;;;;;5012146;28;20511;-65
2023/01/21 02:31:59;;;;;;;15.40;9.17;;;0.00;99.90;;;;;;5011239;28;20447;-65
2023/01/21 02:34:39;;;;;;;23.70;9.37;;;0.00;99.90;;;;;;5012166;28;20501;-65
2023/01/21 02:37:08;;;;;;;17.47;7.93;;;0.00;99.90;;;;;;5012076;28;20406;-67
2023/01/21 02:39:46;;;;;;;12.07;7.90;;;0.00;99.90;;;;;;5012123;28;20403;-65
2023/01/21 02:42:30;;;;;;;13.03;7.40;;;0.10;99.90;;;;;;5012259;28;20405;-65
2023/01/21 02:44:58;;;;;;;21.17;9.27;;;0.00;99.90;;;;;;5012153;28;20909;-65
2023/01/21 02:47:47;;;;;;;20.83;9.20;;;0.10;99.90;;;;;;5009571;28;20504;-65
2023/01/21 02:50:31;;;;;;;14.23;8.67;;;0.10;99.90;;;;;;5012202;28;20901;-65
2023/01/21 02:53:03;;;;;;;14.40;8.10;;;0.10;99.90;;;;;;5012295;28;20477;-66
2023/01/21 02:55:36;;;;;;;17.80;9.03;;;0.20;99.90;;;;;;5010906;28;20741;-66
2023/01/21 02:58:06;;;;;;;18.87;8.37;;;0.20;99.90;;;;;;5012199;28;20395;-66
2023/01/21 03:00:47;;;;;;;18.87;9.03;;;0.30;99.90;;;;;;5012043;28;20399;-65
2023/01/21 03:03:40;;;;;;;14.40;8.10;;;0.30;99.90;;;;;;5013148;28;20924;-68
2023/01/21 03:06:20;;;;;;;18.30;8.37;;;0.30;99.90;;;;;;5002864;28;21032;-67
2023/01/21 03:08:57;;;;;;;16.13;8.10;;;0.30;99.90;;;;;;5011631;28;20455;-66
2023/01/21 03:11:23;;;;;;;11.70;6.80;;;0.30;99.90;;;;;;5011693;28;20415;-66
2023/01/21 03:16:59;;;;;;;8.90;6.43;;;0.30;99.90;;;;;;5011568;28;20626;-66
2023/01/21 03:19:55;;;;;;;12.43;6.67;;;0.40;99.90;;;;;;5011362;28;20600;-66
2023/01/21 03:22:25;;;;;;;11.33;6.17;;;0.40;99.90;;;;;;5010279;28;20439;-66
2023/01/21 03:24:52;;;;;;;10.97;6.63;;;0.40;99.90;;;;;;5011392;28;20457;-66
2023/01/21 03:27:22;;;;;;;14.83;7.07;;;0.50;99.90;;;;;;5010550;28;21107;-66
2023/01/21 03:29:53;;;;;;;11.57;6.00;;;0.50;99.90;;;;;;5011295;28;20469;-66
2023/01/21 03:32:21;;;;;;;14.03;8.27;;;0.50;99.90;;;;;;5011354;28;20490;-66
2023/01/21 03:34:50;;;;;;;10.53;6.63;;;0.50;99.90;;;;;;5011482;28;20404;-66
2023/01/21 03:37:25;;;;;;;8.57;6.20;;;0.40;99.90;;;;;;5010359;28;20435;-65
2023/01/21 03:40:14;;;;;;;12.70;6.77;;;0.40;99.90;;;;;;5011128;28;20403;-66
2023/01/21 03:42:41;;;;;;;11.37;6.00;;;0.40;99.90;;;;;;5011156;28;20427;-66
2023/01/21 03:45:08;;;;;;;13.73;6.37;;;0.40;99.90;;;;;;5011139;28;20403;-66
2023/01/21 03:47:36;;;;;;;10.93;7.30;;;0.50;99.90;;;;;;5011240;28;20537;-65
2023/01/21 03:50:28;;;;;;;11.03;6.70;;;0.50;99.90;;;;;;4993475;28;20494;-65
2023/01/21 03:52:54;;;;;;;12.63;7.10;;;0.50;99.90;;;;;;5010303;28;20545;-66
2023/01/21 03:55:21;;;;;;;12.43;7.03;;;0.50;99.90;;;;;;5011158;28;20475;-66
2023/01/21 03:57:46;;;;;;;10.33;5.90;;;0.50;99.90;;;;;;5011488;28;20414;-65
2023/01/21 04:00:12;;;;;;;9.63;5.97;;;0.50;99.90;;;;;;5011392;28;20494;-66
2023/01/21 04:02:38;;;;;;;13.47;6.33;;;0.40;99.90;;;;;;5011301;28;20670;-66
2023/01/21 04:05:04;;;;;;;10.10;6.50;;;0.40;99.90;;;;;;5011359;28;20468;-66
2023/01/21 04:07:30;;;;;;;10.17;6.10;;;0.40;99.90;;;;;;5011393;28;20451;-65
2023/01/21 04:09:56;;;;;;;6.87;5.27;;;0.40;99.90;;;;;;5011639;28;20410;-66
2023/01/21 04:12:21;;;;;;;9.87;6.13;;;0.30;99.90;;;;;;5010368;28;20179;-67
2023/01/21 04:14:47;;;;;;;6.40;4.90;;;0.30;99.90;;;;;;5012203;28;20171;-67
2023/01/21 04:17:13;;;;;;;7.67;4.80;;;0.30;99.90;;;;;;5013043;28;20318;-66
2023/01/21 04:19:38;;;;;;;7.50;4.70;;;0.40;99.90;;;;;;5012751;28;20168;-66
2023/01/21 04:22:04;;;;;;;15.73;6.60;;;0.30;99.90;;;;;;5013139;28;20172;-66
2023/01/21 04:24:29;;;;;;;8.83;4.43;;;0.40;99.90;;;;;;5012540;28;20231;-66
2023/01/21 04:26:55;;;;;;;11.10;5.70;;;0.40;99.90;;;;;;5011834;28;20637;-67
2023/01/21 04:29:21;;;;;;;4.33;3.40;;;0.40;99.90;;;;;;5010994;28;20262;-65
2023/01/21 04:31:47;;;;;;;6.70;4.97;;;0.30;99.90;;;;;;5011803;28;20179;-66
2023/01/21 04:34:12;;;;;;;8.77;5.63;;;0.30;99.90;;;;;;5044615;23;20270;-70
2023/01/21 04:36:38;;;;;;;10.57;5.67;;;0.30;99.90;;;;;;5012383;28;20498;-70
2023/01/21 04:39:04;;;;;;;7.17;4.17;;;0.30;99.90;;;;;;5015447;28;20664;-70
2023/01/21 04:41:29;;;;;;;6.60;4.93;;;0.30;99.90;;;;;;5033882;28;20171;-70
2023/01/21 04:43:55;;;;;;;6.37;4.40;;;0.40;99.90;;;;;;5034014;28;20709;-70
2023/01/21 04:46:20;;;;;;;9.10;5.73;;;0.40;99.90;;;;;;5032639;28;20626;-70
2023/01/21 04:48:46;;;;;;;8.17;4.87;;;0.40;99.90;;;;;;5033841;28;20203;-70
2023/01/21 04:51:11;;;;;;;11.70;5.33;;;0.30;99.90;;;;;;5033816;28;20200;-71
2023/01/21 04:53:37;;;;;;;5.20;4.20;;;0.30;99.90;;;;;;5033855;28;20698;-70
2023/01/21 04:56:03;;;;;;;5.43;3.90;;;0.20;99.90;;;;;;5033765;28;20242;-70
2023/01/21 04:58:28;;;;;;;8.53;5.80;;;0.20;99.90;;;;;;5033760;28;20182;-70
2023/01/21 05:00:54;;;;;;;7.40;5.30;;;0.10;99.90;;;;;;5016013;28;20247;-70
2023/01/21 05:03:20;;;;;;;8.87;6.30;;;0.10;99.90;;;;;;5016193;28;20207;-69
2023/01/21 05:05:46;;;;;;;10.00;5.93;;;0.10;99.90;;;;;;5014285;28;20403;-68
2023/01/21 05:08:12;;;;;;;7.97;4.60;;;0.10;99.90;;;;;;5014248;28;20450;-73
2023/01/21 05:10:37;;;;;;;8.70;5.00;;;0.10;99.90;;;;;;5014053;28;20176;-70
2023/01/21 05:13:03;;;;;;;6.60;4.30;;;0.10;99.90;;;;;;5014044;28;20191;-70
2023/01/21 05:15:29;;;;;;;6.23;4.40;;;0.10;99.90;;;;;;5015012;28;20183;-70
2023/01/21 05:17:54;;;;;;;9.40;5.27;;;0.10;99.90;;;;;;5024388;28;20238;-72
2023/01/21 05:20:20;;;;;;;9.90;5.63;;;0.10;99.90;;;;;;5034004;28;20417;-71
2023/01/21 05:22:46;;;;;;;9.73;5.90;;;0.10;99.90;;;;;;5016087;28;20634;-70
2023/01/21 05:25:12;;;;;;;10.13;4.00;;;0.20;99.90;;;;;;5033498;28;20164;-70
2023/01/21 05:27:38;;;;;;;9.47;5.10;;;0.30;99.90;;;;;;5033397;28;20494;-71
2023/01/21 05:30:04;;;;;;;8.83;4.80;;;0.20;99.90;;;;;;5033213;28;20441;-70
2023/01/21 05:32:30;;;;;;;8.50;5.17;;;0.20;99.90;;;;;;5033368;28;20168;-71
2023/01/21 05:34:55;;;;;;;9.70;5.20;;;0.30;99.90;;;;;;5032374;28;20554;-70
2023/01/21 05:37:21;;;;;;;8.30;5.13;;;0.30;99.90;;;;;;5033173;28;20206;-69
2023/01/21 05:39:47;;;;;;;10.60;6.50;;;0.30;99.90;;;;;;5032911;28;20638;-72
2023/01/21 05:42:12;;;;;;;9.10;5.10;;;0.30;99.90;;;;;;5033278;28;20301;-71
2023/01/21 05:44:38;;;;;;;15.13;6.37;;;0.30;99.90;;;;;;5032974;28;20876;-71
2023/01/21 05:47:03;;;;;;;11.40;5.70;;;0.30;99.90;;;;;;5032910;28;20210;-71
2023/01/21 05:49:29;;;;;;;10.63;6.20;;;0.30;99.90;;;;;;5031920;28;20281;-72
2023/01/21 05:51:55;;;;;;;7.43;4.40;;;0.30;99.90;;;;;;5031863;28;20187;-71
2023/01/21 05:54:20;;;;;;;5.93;4.27;;;0.40;99.90;;;;;;5032958;28;20715;-71
2023/01/21 05:56:46;;;;;;;9.97;5.20;;;0.40;99.90;;;;;;5032737;28;20168;-70
2023/01/21 05:59:11;;;;;;;9.33;4.70;;;0.40;99.90;;;;;;5014631;28;20532;-70
2023/01/21 06:01:37;;;;;;;7.67;5.13;;;0.40;99.90;;;;;;5033083;28;20176;-72
2023/01/21 06:04:03;;;;;;;8.30;5.37;;;0.40;99.90;;;;;;5033219;28;20187;-70
2023/01/21 06:06:28;;;;;;;13.20;5.87;;;0.40;99.90;;;;;;5032660;28;20586;-70
2023/01/21 06:08:54;;;;;;;9.93;5.23;;;0.40;99.90;;;;;;5031694;28;20620;-70
2023/01/21 06:11:19;;;;;;;14.70;4.83;;;0.40;99.90;;;;;;5032426;28;20180;-71
2023/01/21 06:13:45;;;;;;;9.30;4.97;;;0.40;99.90;;;;;;5032320;28;20195;-71
2023/01/21 06:16:11;;;;;;;11.47;5.83;;;0.40;99.90;;;;;;5032978;28;20484;-71
2023/01/21 06:18:36;;;;;;;11.37;6.67;;;0.50;99.90;;;;;;5032255;28;20168;-70
2023/01/21 06:21:02;;;;;;;7.00;5.13;;;0.50;99.90;;;;;;5032378;28;20547;-71
2023/01/21 06:23:28;;;;;;;11.03;6.63;;;0.50;99.90;;;;;;5032353;28;20199;-71
2023/01/21 06:25:58;;;;;;;8.43;5.10;;;0.50;99.90;;;;;;5031056;28;20711;-71
2023/01/21 06:28:24;;;;;;;9.77;5.90;;;0.50;99.90;;;;;;5032079;28;20272;-71
2023/01/21 06:30:49;;;;;;;8.70;6.10;;;0.60;99.90;;;;;;5031933;28;20501;-71
2023/01/21 06:33:15;;;;;;;8.47;5.13;;;0.60;99.90;;;;;;5031794;28;20590;-71
2023/01/21 06:35:40;;;;;;;15.13;8.00;;;0.60;99.90;;;;;;5031830;28;20190;-71
2023/01/21 06:38:06;;;;;;;7.83;5.60;;;0.60;99.90;;;;;;5031745;28;20242;-70
2023/01/21 06:40:31;;;;;;;15.23;9.30;;;0.60;99.90;;;;;;5031652;28;20240;-69
2023/01/21 06:42:57;;;;;;;14.03;7.97;;;0.70;99.90;;;;;;5016430;28;20227;-70
2023/01/21 06:45:23;;;;;;;11.93;7.87;;;0.70;99.90;;;;;;5012255;28;20191;-70
2023/01/21 06:47:48;;;;;;;16.73;8.40;;;0.70;99.90;;;;;;5011854;28;20200;-71
2023/01/21 06:50:16;;;;;;;17.43;8.20;;;0.70;99.90;;;;;;5011610;28;20644;-70
2023/01/21 06:52:44;;;;;;;12.37;8.20;;;0.70;99.90;;;;;;5010142;28;20205;-72
2023/01/21 06:55:11;;;;;;;11.13;8.63;;;0.70;99.90;;;;;;5009862;28;21156;-70
2023/01/21 06:57:37;;;;;;;14.57;7.80;;;0.80;99.90;;;;;;5011771;28;20415;-71
2023/01/21 07:00:04;;;;;;;16.50;9.87;;;0.80;99.90;;;;;;5010495;28;20438;-71
2023/01/21 07:02:29;;;;;;;12.60;9.57;;;0.80;99.90;;;;;;5011780;28;20491;-70
2023/01/21 07:04:55;;;;;;;11.60;8.13;;;0.80;99.90;;;;;;5011435;28;20510;-70
2023/01/21 07:07:21;;;;;;;16.60;10.10;;;0.70;99.90;;;;;;5011522;28;20486;-71
2023/01/21 07:09:46;;;;;;;16.83;10.23;;;0.70;99.90;;;;;;4993942;28;20176;-70
2023/01/21 07:12:12;;;;;;;13.67;10.10;;;0.70;99.90;;;;;;5011738;28;20196;-71
2023/01/21 07:14:38;;;;;;;13.73;9.43;;;0.70;99.90;;;;;;5011580;28;20196;-70
2023/01/21 07:17:03;;;;;;;15.53;8.03;;;0.70;99.90;;;;;;5011183;28;20186;-70
2023/01/21 07:19:29;;;;;;;22.47;9.40;;;0.70;99.90;;;;;;5011478;28;20195;-71
2023/01/21 07:21:54;;;;;;;18.67;9.57;;;0.70;99.90;;;;;;5011498;28;20168;-71
2023/01/21 07:24:20;;;;;;;17.33;9.67;;;0.70;99.90;;;;;;5011343;28;20299;-71
2023/01/21 07:26:47;;;;;;;21.13;9.10;;;0.70;99.90;;;;;;5011213;28;20176;-72
2023/01/21 07:29:12;;;;;;;16.00;12.30;;;0.70;99.90;;;;;;5011190;28;20196;-71
2023/01/21 07:31:38;;;;;;;15.77;10.17;;;0.70;99.90;;;;;;5011215;28;20407;-71
2023/01/21 07:34:04;;;;;;;19.93;10.03;;;0.70;99.90;;;;;;5026521;28;20678;-70
2023/01/21 07:36:30;;;;;;;12.60;10.23;;;0.70;99.90;;;;;;5030685;28;20175;-65
2023/01/21 07:38:55;;;;;;;15.73;11.07;;;0.70;99.90;;;;;;5030727;28;20411;-66
2023/01/21 07:41:21;;;;;;;18.63;11.00;;;0.70;99.90;;;;;;5030742;28;20741;-66
2023/01/21 07:43:47;;;;;;;19.60;12.20;;;0.70;99.90;;;;;;5030622;28;20191;-67
2023/01/21 07:46:15;;;;;;;13.03;9.27;;;0.80;99.90;;;;;;5030472;28;20183;-67
2023/01/21 07:48:41;;;;;;;14.33;8.83;;;0.70;99.90;;;;;;5029035;28;20457;-67
2023/01/21 07:51:07;;;;;;;11.13;9.90;;;0.80;99.90;;;;;;5011090;28;20419;-67
2023/01/21 07:53:32;;;;;;;15.80;9.30;;;0.80;99.90;;;;;;5010726;28;20200;-70
2023/01/21 07:56:05;;;;;;;14.90;10.27;;;0.80;99.90;;;;;;5010798;28;20172;-69
2023/01/21 07:58:31;;;;;;;15.40;9.83;;;0.80;99.90;;;;;;5010751;28;20164;-70
2023/01/21 08:00:57;;;;;;;14.67;9.80;;;0.80;99.90;;;;;;5010883;28;20765;-70
2023/01/21 08:03:24;;;;;;;17.93;10.90;;;0.80;99.90;;;;;;5010807;28;20464;-71
2023/01/21 08:05:50;;;;;;;11.70;9.70;;;0.80;99.90;;;;;;5009970;28;20266;-71
2023/01/21 08:08:17;;;;;;;12.70;8.67;;;0.80;99.90;;;;;;5011116;28;20462;-71
2023/01/21 08:10:43;;;;;;;15.70;7.93;;;0.80;99.90;;;;;;5010981;28;20749;-72
2023/01/21 08:13:08;;;;;;;14.20;8.80;;;0.90;99.90;;;;;;5012745;28;20477;-71
2023/01/21 08:15:34;;;;;;;14.13;8.33;;;0.90;99.90;;;;;;5014900;28;20399;-71
2023/01/21 08:17:59;;;;;;;15.47;7.73;;;0.90;99.90;;;;;;5015138;28;20173;-71
2023/01/21 08:20:25;;;;;;;12.67;9.47;;;0.90;99.90;;;;;;5014692;28;20251;-71
2023/01/21 08:22:51;;;;;;;11.77;8.73;;;1.00;99.90;;;;;;5013820;28;20606;-71
2023/01/21 08:25:17;;;;;;;16.13;9.53;;;1.00;99.90;;;;;;5014491;28;20901;-70
2023/01/21 08:27:42;;;;;;;14.07;8.87;;;1.00;99.90;;;;;;5014572;28;20224;-70
2023/01/21 08:30:08;;;;;;;16.00;9.33;;;1.00;99.90;;;;;;5014377;28;20255;-70
2023/01/21 08:32:34;;;;;;;12.70;8.00;;;1.10;99.90;;;;;;5014361;28;20789;-68
2023/01/21 08:35:00;;;;;;;12.00;9.00;;;1.10;99.90;;;;;;5014400;28;20562;-70
2023/01/21 08:37:25;;;;;;;12.03;7.53;;;1.10;99.90;;;;;;5014754;28;20173;-76
2023/01/21 08:39:51;;;;;;;14.37;8.57;;;1.10;99.90;;;;;;5013674;28;20218;-70
2023/01/21 08:42:16;;;;;;;15.30;10.27;;;1.20;99.90;;;;;;5014661;28;20179;-71
2023/01/21 08:44:42;;;;;;;13.80;10.60;;;1.20;99.90;;;;;;5014255;28;20263;-71
2023/01/21 08:47:07;;;;;;;12.07;8.70;;;1.30;99.90;;;;;;5014412;28;20601;-70
2023/01/21 08:49:33;;;;;;;12.50;9.13;;;1.30;99.90;;;;;;5014233;28;20164;-71
2023/01/21 08:51:58;;;;;;;15.23;7.67;;;1.30;99.90;;;;;;5019702;28;20253;-70
2023/01/21 08:54:24;;;;;;;14.47;8.83;;;1.30;99.90;;;;;;5030090;28;20247;-70
2023/01/21 08:56:50;;;;;;;10.10;7.87;;;1.40;99.90;;;;;;5033800;28;20191;-70
2023/01/21 08:59:15;;;;;;;14.10;8.67;;;1.40;99.90;;;;;;5015242;28;20206;-70
2023/01/21 09:01:42;;;;;;;12.80;8.73;;;1.40;99.90;;;;;;5015873;28;20171;-70
2023/01/21 09:04:08;;;;;;;9.47;8.00;;;1.40;99.90;;;;;;5033588;28;20261;-70
2023/01/21 09:06:34;;;;;;;15.30;7.97;;;1.40;99.90;;;;;;5034053;28;20414;-70
2023/01/21 09:09:00;;;;;;;12.53;7.60;;;1.50;99.90;;;;;;5011994;28;20451;-70
2023/01/21 09:11:27;;;;;;;12.17;8.10;;;1.50;99.90;;;;;;5012435;28;20164;-69
2023/01/21 09:13:54;;;;;;;12.87;8.00;;;1.50;99.90;;;;;;5012985;28;20451;-68
2023/01/21 09:16:21;;;;;;;16.00;8.60;;;1.50;99.90;;;;;;5013723;28;20419;-70
2023/01/21 09:18:47;;;;;;;14.73;10.40;;;1.50;99.90;;;;;;5013372;28;20510;-69
2023/01/21 09:21:14;;;;;;;11.13;7.47;;;1.60;99.90;;;;;;5013767;28;20415;-64
2023/01/21 09:23:40;;;;;;;15.20;8.27;;;1.60;99.90;;;;;;5013581;28;20430;-69
2023/01/21 09:26:12;;;;;;;9.90;7.87;;;1.60;99.90;;;;;;5020790;28;20406;-70
2023/01/21 09:28:41;;;;;;;19.20;8.90;;;1.50;99.90;;;;;;5028738;28;20451;-71
2023/01/21 09:31:09;;;;;;;12.37;10.03;;;1.60;99.90;;;;;;5013435;28;20477;-72
2023/01/21 09:33:36;;;;;;;16.07;8.70;;;1.60;99.90;;;;;;5013342;28;20450;-70
2023/01/21 09:36:04;;;;;;;13.53;8.83;;;1.60;99.90;;;;;;5013326;28;20404;-70
2023/01/21 09:38:30;;;;;;;10.90;9.07;;;1.70;99.90;;;;;;5013241;28;20502;-70
2023/01/21 09:41:21;;;;;;;12.37;8.70;;;1.80;99.90;;;;;;5013079;28;20545;-70
2023/01/21 09:43:57;;;;;;;10.80;7.20;;;1.80;99.90;;;;;;5024211;28;20442;-70
2023/01/21 09:46:33;;;;;;;9.33;8.10;;;1.90;99.90;;;;;;5028468;28;20453;-69
2023/01/21 09:49:01;;;;;;;14.70;9.20;;;1.90;99.90;;;;;;5013306;28;20467;-70
2023/01/21 09:52:10;;;;;;;12.87;7.93;;;1.90;99.90;;;;;;5024194;28;20413;-69
2023/01/21 09:54:38;;;;;;;15.80;8.13;;;1.80;99.90;;;;;;4933146;29;20470;-71
2023/01/21 09:57:03;;;;;;;14.40;8.20;;;1.80;99.90;;;;;;5019563;28;20410;-72
2023/01/21 09:59:57;;;;;;;16.57;9.27;;;1.90;99.90;;;;;;5031523;28;20475;-71
2023/01/21 10:02:32;;;;;;;11.83;8.03;;;1.90;99.90;;;;;;5012816;28;20172;-71
2023/01/21 10:05:23;;;;;;;15.03;9.07;;;2.00;99.90;;;;;;5011948;28;20447;-70
2023/01/21 10:08:10;;;;;;;10.03;8.00;;;2.00;99.90;;;;;;5012970;28;20451;-70
2023/01/21 10:10:50;;;;;;;11.10;7.33;;;2.10;99.90;;;;;;5012572;28;20866;-69
2023/01/21 10:13:36;;;;;;;14.53;9.13;;;2.20;99.90;;;;;;5012732;28;20431;-70
2023/01/21 10:16:24;;;;;;;10.87;8.47;;;2.10;99.90;;;;;;5015191;28;20406;-71
2023/01/21 10:18:52;;;;;;;14.83;9.17;;;2.30;99.90;;;;;;5014905;28;20417;-70
2023/01/21 10:21:47;;;;;;;13.20;8.67;;;2.30;99.90;;;;;;5026896;28;20869;-70
2023/01/21 10:24:25;;;;;;;9.10;7.27;;;2.30;99.90;;;;;;5012971;28;20430;-71
2023/01/21 10:26:52;;;;;;;16.07;7.40;;;2.20;99.90;;;;;;5013494;28;20822;-70
2023/01/21 10:29:22;;;;;;;14.20;7.97;;;2.20;99.90;;;;;;5012776;28;20505;-71
2023/01/21 10:32:01;;;;;;;11.50;7.60;;;2.20;99.90;;;;;;4995128;28;20443;-72
2023/01/21 10:34:32;;;;;;;13.37;9.07;;;2.30;99.90;;;;;;5031208;28;20549;-70
2023/01/21 10:37:06;;;;;;;11.07;7.10;;;2.20;99.90;;;;;;5031982;28;20505;-69
2023/01/21 10:40:02;;;;;;;14.03;9.10;;;2.20;99.90;;;;;;5065566;23;21028;-67
2023/01/21 10:42:40;;;;;;;10.47;6.90;;;2.30;99.90;;;;;;5032211;28;20761;-67
2023/01/21 10:45:32;;;;;;;13.10;8.23;;;2.50;99.90;;;;;;5035519;28;20409;-67
2023/01/21 10:48:16;;;;;;;14.73;8.07;;;2.70;99.90;;;;;;5033769;28;20447;-67
2023/01/21 10:50:54;;;;;;;9.63;7.20;;;2.50;99.90;;;;;;5020954;28;20556;-67
2023/01/21 10:53:25;;;;;;;12.83;7.80;;;2.60;99.90;;;;;;5033345;28;20402;-67
2023/01/21 10:56:05;;;;;;;12.57;8.30;;;2.50;99.90;;;;;;5033815;28;20409;-66
2023/01/21 10:58:44;;;;;;;10.57;7.70;;;2.50;99.90;;;;;;5033614;28;20878;-66
2023/01/21 11:01:36;;;;;;;13.50;7.60;;;2.70;99.90;;;;;;5048585;28;20519;-66
2023/01/21 11:04:12;;;;;;;11.93;7.90;;;2.70;99.90;;;;;;5052888;28;20409;-65
2023/01/21 11:06:38;;;;;;;10.83;7.93;;;2.80;99.90;;;;;;5038070;28;20493;-66
2023/01/21 11:09:06;;;;;;;11.07;7.33;;;2.80;99.90;;;;;;5012693;28;20470;-66
2023/01/21 11:11:34;;;;;;;8.60;6.37;;;2.90;99.90;;;;;;5013190;28;20403;-65
2023/01/21 11:14:00;;;;;;;11.10;7.27;;;2.90;99.90;;;;;;5016903;28;20422;-67
2023/01/21 11:16:44;;;;;;;12.97;8.00;;;2.90;99.90;;;;;;5032790;28;20445;-67
2023/01/21 11:19:24;;;;;;;10.07;8.10;;;3.10;99.90;;;;;;5012654;28;20438;-66
2023/01/21 11:22:04;;;;;;;11.13;6.97;;;3.10;99.90;;;;;;5013606;28;20437;-66
2023/01/21 11:24:42;;;;;;;11.40;6.67;;;3.00;99.90;;;;;;5013078;28;20435;-67
2023/01/21 11:27:20;;;;;;;10.10;7.93;;;3.00;99.90;;;;;;5012867;28;20407;-67
2023/01/21 11:29:48;;;;;;;8.90;6.07;;;3.00;99.90;;;;;;5012658;28;20431;-67
2023/01/21 11:32:26;;;;;;;9.07;6.33;;;3.10;99.90;;;;;;5012604;28;20425;-66
2023/01/21 11:35:01;;;;;;;8.60;6.10;;;3.30;99.90;;;;;;5012457;28;20431;-67
2023/01/21 11:37:28;;;;;;;10.17;6.87;;;3.30;99.90;;;;;;5012621;28;20770;-66
2023/01/21 11:40:10;;;;;;;10.83;7.23;;;3.30;99.90;;;;;;5011469;28;20466;-66
2023/01/21 11:42:47;;;;;;;10.47;6.63;;;3.40;99.90;;;;;;5012535;28;20426;-66
2023/01/21 11:45:25;;;;;;;8.17;6.53;;;3.30;99.90;;;;;;5012641;28;20434;-66
2023/01/21 11:47:52;;;;;;;12.90;8.07;;;3.30;99.90;;;;;;5010145;28;20450;-66
2023/01/21 11:50:26;;;;;;;8.87;6.33;;;3.30;99.90;;;;;;5026135;28;20846;-66
2023/01/21 11:53:18;;;;;;;8.73;6.90;;;3.40;99.90;;;;;;5032490;28;20398;-66
2023/01/21 11:55:45;;;;;;;11.50;7.00;;;3.40;99.90;;;;;;5028550;28;20410;-66
2023/01/21 11:58:38;;;;;;;9.03;7.20;;;3.40;99.90;;;;;;5032231;28;20458;-66
2023/01/21 12:01:16;;;;;;;11.50;6.67;;;3.40;99.90;;;;;;5046187;28;20410;-67
2023/01/21 12:03:48;;;;;;;9.50;6.63;;;3.50;99.90;;;;;;5052223;28;20402;-68
2023/01/21 12:06:20;;;;;;;10.00;7.00;;;3.60;99.90;;;;;;5012302;28;20431;-67
2023/01/21 12:08:49;;;;;;;10.03;7.10;;;3.50;99.90;;;;;;5012163;28;20476;-66
2023/01/21 12:11:21;;;;;;;10.60;6.40;;;3.60;99.90;;;;;;5012386;28;20489;-68
2023/01/21 12:13:54;;;;;;;10.00;6.77;;;3.70;99.90;;;;;;5011800;28;20422;-66
2023/01/21 12:17:00;;;;;;;9.03;5.77;;;3.70;99.90;;;;;;5031388;28;20819;-66
2023/01/21 12:19:32;;;;;;;6.20;4.50;;;3.70;99.90;;;;;;5031533;28;20418;-66
2023/01/21 12:22:35;;;;;;;9.60;5.70;;;3.70;99.90;;;;;;5027852;28;20436;-68
2023/01/21 12:25:23;;;;;;;7.37;5.67;;;3.60;99.90;;;;;;5018057;28;20871;-67
2023/01/21 12:28:10;;;;;;;8.60;6.00;;;3.60;99.90;;;;;;5031678;28;20438;-67
2023/01/21 12:31:22;;;;;;;6.13;5.10;;;3.70;99.90;;;;;;5027844;28;20431;-67
2023/01/21 12:34:26;;;;;;;9.40;5.80;;;3.90;99.90;;;;;;4970657;28;20854;-67
2023/01/21 12:37:12;;;;;;;8.33;5.33;;;3.90;99.90;;;;;;4951428;29;20413;-67
2023/01/21 12:39:41;;;;;;;11.87;5.70;;;3.90;99.90;;;;;;4950894;29;20788;-67
2023/01/21 12:42:32;;;;;;;6.57;5.40;;;4.00;99.90;;;;;;5001237;28;20421;-68
2023/01/21 12:45:04;;;;;;;7.63;5.20;;;4.00;99.90;;;;;;5031663;28;20405;-67
2023/01/21 12:47:49;;;;;;;8.40;4.77;;;3.90;99.90;;;;;;5014501;28;20453;-67
2023/01/21 12:50:42;;;;;;;7.70;5.53;;;4.00;99.90;;;;;;5016865;28;20431;-68
2023/01/21 12:53:08;;;;;;;5.63;4.20;;;3.90;99.90;;;;;;5033020;28;20397;-67
2023/01/21 12:56:00;;;;;;;7.90;4.40;;;3.90;99.90;;;;;;5032898;28;20403;-67
2023/01/21 12:58:31;;;;;;;8.43;5.00;;;4.00;99.90;;;;;;5032893;28;20192;-67
2023/01/21 13:01:00;;;;;;;8.23;4.70;;;4.00;99.90;;;;;;5049679;28;20509;-67
2023/01/21 13:03:51;;;;;;;5.00;3.90;;;4.00;99.90;;;;;;5055927;28;20481;-67
2023/01/21 13:06:24;;;;;;;5.33;3.93;;;4.00;99.90;;;;;;5015908;28;20441;-67
2023/01/21 13:09:18;;;;;;;8.23;4.50;;;4.00;99.90;;;;;;5015645;28;20450;-67
2023/01/21 13:11:54;;;;;;;5.00;4.30;;;3.90;99.90;;;;;;5016353;28;20454;-67